Time;durP1;ratioP1;P1;durP2;ratioP2;P2;SDS_P1;SDS_P2;PMS_P1;PMS_P2;Temp;Humidity;BMP_temperature;BMP_pressure;BME280_temperature;BME280_humidity;BME280_pressure;Samples;Min_cycle;Max_cycle;Signal;HPM_P1;HPM_P2
2022/01/26 00:07:42;;;;;;;0.10;0.10;;;4.80;99.90;;;;;;6224550;23;20066;-85
2022/01/26 00:10:10;;;;;;;0.10;0.10;;;4.80;99.90;;;;;;6223654;23;20020;-85
2022/01/26 00:12:38;;;;;;;0.10;0.10;;;;;;;;;;6224684;23;20020;-85
2022/01/26 00:15:05;;;;;;;0.10;0.10;;;4.80;99.90;;;;;;6224016;23;20020;-84
2022/01/26 00:17:32;;;;;;;0.00;0.00;;;;;;;;;;6196919;23;20427;-84
2022/01/26 00:34:18;;;;;;;0.00;0.00;;;4.70;99.90;;;;;;6251206;23;20017;-84
2022/01/26 00:38:44;;;;;;;0.10;0.10;;;4.70;99.90;;;;;;6251551;23;20063;-85
2022/01/26 00:41:18;;;;;;;0.10;0.10;;;4.70;99.90;;;;;;6223304;23;20012;-84
2022/01/26 00:43:51;;;;;;;0.10;0.10;;;4.60;99.90;;;;;;6222251;23;20020;-84
2022/01/26 00:46:36;;;;;;;0.10;0.10;;;;;;;;;;6221355;23;20043;-84
2022/01/26 00:49:04;;;;;;;0.00;0.00;;;4.70;99.90;;;;;;6222214;23;20400;-85
2022/01/26 00:51:30;;;;;;;0.00;0.00;;;4.60;99.90;;;;;;6222858;23;20043;-85
2022/01/26 00:54:05;;;;;;;0.08;0.08;;;;;;;;;;6224300;23;20074;-85
2022/01/26 00:56:33;;;;;;;0.00;0.00;;;4.60;99.90;;;;;;6197521;23;20629;-85
2022/01/26 00:59:01;;;;;;;0.00;0.00;;;;;;;;;;6223155;23;20016;-84
2022/01/26 01:01:28;;;;;;;0.00;0.00;;;4.60;99.90;;;;;;6225266;22;20066;-84
2022/01/26 01:03:58;;;;;;;0.10;0.10;;;4.60;99.90;;;;;;6251008;22;20022;-84
2022/01/26 01:06:29;;;;;;;0.00;0.00;;;;;;;;;;6256456;22;20024;-85
2022/01/26 01:08:57;;;;;;;0.10;0.10;;;4.60;99.90;;;;;;6279661;22;20406;-84
2022/01/26 01:11:26;;;;;;;0.10;0.10;;;4.60;99.90;;;;;;6228230;22;20024;-84
2022/01/26 01:13:55;;;;;;;0.00;0.00;;;4.60;99.90;;;;;;6252405;22;20027;-84
2022/01/26 01:16:23;;;;;;;0.10;0.10;;;4.70;99.90;;;;;;6250314;22;20072;-85
2022/01/26 01:19:03;;;;;;;0.08;0.08;;;4.60;99.90;;;;;;6248953;22;20023;-84
2022/01/26 01:22:05;;;;;;;0.03;0.03;;;4.80;99.90;;;;;;6280322;22;20011;-84
2022/01/26 01:27:29;;;;;;;0.10;0.10;;;4.60;99.90;;;;;;6253586;22;20070;-84
2022/01/26 01:30:04;;;;;;;0.10;0.10;;;4.60;99.90;;;;;;6252130;22;20019;-84
2022/01/26 01:32:50;;;;;;;0.05;0.05;;;;;;;;;;6226091;22;20518;-84
2022/01/26 01:35:17;;;;;;;0.10;0.10;;;4.60;99.90;;;;;;6278022;22;20019;-84
2022/01/26 01:37:44;;;;;;;0.10;0.10;;;4.60;99.90;;;;;;6252881;22;20042;-84
2022/01/26 01:40:11;;;;;;;0.00;0.00;;;4.60;99.90;;;;;;6289601;22;20066;-84
2022/01/26 01:42:38;;;;;;;0.00;0.00;;;;;;;;;;6281640;22;20012;-84
2022/01/26 01:45:08;;;;;;;0.10;0.10;;;4.50;99.90;;;;;;6276733;22;20020;-85
2022/01/26 01:47:36;;;;;;;0.00;0.00;;;;;;;;;;6250302;22;20042;-84
2022/01/26 01:50:09;;;;;;;0.10;0.10;;;4.50;99.90;;;;;;6280003;22;20161;-85
2022/01/26 01:52:36;;;;;;;0.10;0.10;;;;;;;;;;6251274;22;20381;-85
2022/01/26 01:55:05;;;;;;;0.10;0.10;;;4.50;99.90;;;;;;6279042;22;20477;-84
2022/01/26 01:57:32;;;;;;;0.10;0.10;;;4.50;99.90;;;;;;6252139;22;20023;-84
2022/01/26 01:59:59;;;;;;;0.00;0.00;;;;;;;;;;6279818;22;20029;-84
2022/01/26 02:02:27;;;;;;;0.10;0.10;;;4.50;99.90;;;;;;6275805;22;20011;-84
2022/01/26 02:04:55;;;;;;;0.08;0.08;;;;;;;;;;6264000;22;20023;-84
2022/01/26 02:07:22;;;;;;;0.10;0.10;;;;;;;;;;6278246;22;20385;-85
2022/01/26 02:09:49;;;;;;;0.10;0.10;;;;;;;;;;6280557;22;20381;-84
2022/01/26 02:12:21;;;;;;;0.10;0.10;;;4.50;99.90;;;;;;6277292;22;20397;-85
2022/01/26 02:14:53;;;;;;;0.10;0.10;;;;;;;;;;6278476;22;20132;-84
2022/01/26 02:51:06;;;;;;;0.00;0.00;;;4.40;99.90;;;;;;6105523;23;20030;-84
2022/01/26 02:56:19;;;;;;;0.10;0.10;;;4.40;99.90;;;;;;6252937;23;20028;-83
2022/01/26 03:01:35;;;;;;;0.03;0.03;;;4.30;99.90;;;;;;6252778;23;20513;-84
2022/01/26 03:07:12;;;;;;;0.10;0.10;;;4.30;99.90;;;;;;6253038;23;20078;-83
2022/01/26 03:09:35;;;;;;;0.10;0.10;;;;;;;;;;6245723;23;20024;-84
2022/01/26 03:12:05;;;;;;;0.05;0.05;;;4.30;99.90;;;;;;6225896;23;20054;-84
2022/01/26 03:14:47;;;;;;;0.10;0.10;;;4.30;99.90;;;;;;6250664;23;20545;-84
2022/01/26 03:17:32;;;;;;;0.10;0.10;;;4.30;99.90;;;;;;6252997;23;20066;-84
2022/01/26 03:20:06;;;;;;;0.10;0.10;;;4.30;99.90;;;;;;6225086;23;20016;-84
2022/01/26 03:30:56;;;;;;;0.20;0.20;;;4.20;99.90;;;;;;6251517;23;20016;-84
2022/01/26 03:34:09;;;;;;;0.10;0.10;;;;;;;;;;6252769;23;20016;-84
2022/01/26 03:36:14;;;;;;;0.10;0.10;;;;;;;;;;6239783;23;20027;-84
2022/01/26 03:38:46;;;;;;;0.10;0.10;;;4.20;99.90;;;;;;6225433;23;20066;-84
2022/01/26 03:43:40;;;;;;;0.00;0.00;;;;;;;;;;6251116;23;20386;-85
2022/01/26 03:46:07;;;;;;;0.10;0.10;;;4.20;99.90;;;;;;6224546;23;20054;-84
2022/01/26 03:48:34;;;;;;;0.10;0.10;;;4.20;99.90;;;;;;6201197;23;20034;-84
2022/01/26 03:51:01;;;;;;;0.00;0.00;;;;;;;;;;6225888;23;20043;-83
2022/01/26 03:53:29;;;;;;;0.10;0.10;;;4.20;99.90;;;;;;6225790;23;20020;-85
2022/01/26 03:55:57;;;;;;;0.10;0.10;;;4.20;99.90;;;;;;6252836;23;20020;-83
2022/01/26 03:58:24;;;;;;;0.10;0.10;;;4.20;99.90;;;;;;6225535;23;20023;-84
2022/01/26 04:00:50;;;;;;;0.10;0.10;;;4.20;99.90;;;;;;6225289;23;20374;-84
2022/01/26 04:03:17;;;;;;;0.10;0.10;;;4.20;99.90;;;;;;6252225;23;20023;-84
2022/01/26 04:05:44;;;;;;;0.10;0.10;;;4.20;99.90;;;;;;6200438;23;20016;-84
2022/01/26 04:08:17;;;;;;;0.00;0.00;;;4.20;99.90;;;;;;6252448;23;20020;-84
2022/01/26 04:11:02;;;;;;;0.10;0.10;;;4.10;99.90;;;;;;6200256;23;20027;-84
2022/01/26 04:13:31;;;;;;;0.10;0.10;;;4.20;99.90;;;;;;6224675;23;21337;-84
2022/01/26 04:15:58;;;;;;;0.10;0.10;;;;;;;;;;6199788;23;20421;-84
2022/01/26 04:18:32;;;;;;;0.00;0.00;;;;;;;;;;6226221;23;20016;-83
2022/01/26 04:21:06;;;;;;;0.10;0.10;;;4.20;99.90;;;;;;6252389;23;20497;-84
2022/01/26 04:23:42;;;;;;;0.10;0.10;;;;;;;;;;6200534;23;20046;-84
2022/01/26 04:26:11;;;;;;;0.10;0.10;;;4.10;99.90;;;;;;6224724;23;20078;-83
2022/01/26 04:28:46;;;;;;;0.00;0.00;;;4.10;99.90;;;;;;6251679;23;20020;-83
2022/01/26 04:31:13;;;;;;;0.10;0.10;;;4.10;99.90;;;;;;6223660;23;20016;-84
2022/01/26 04:33:41;;;;;;;0.10;0.10;;;4.10;99.90;;;;;;6224792;23;20020;-84
2022/01/26 04:36:12;;;;;;;0.00;0.00;;;4.10;99.90;;;;;;6225383;23;20070;-83
2022/01/26 04:38:45;;;;;;;0.00;0.00;;;;;;;;;;6262927;23;20020;-84
2022/01/26 04:41:33;;;;;;;0.10;0.10;;;;;;;;;;6224545;23;20016;-84
2022/01/26 04:44:16;;;;;;;0.10;0.10;;;4.10;99.90;;;;;;6224475;23;20074;-83
2022/01/26 04:46:43;;;;;;;0.00;0.00;;;4.10;99.90;;;;;;6225176;23;20339;-84
2022/01/26 04:49:10;;;;;;;0.10;0.10;;;4.10;99.90;;;;;;6225997;23;20070;-83
2022/01/26 04:51:37;;;;;;;0.10;0.10;;;4.10;99.90;;;;;;6224797;23;20016;-83
2022/01/26 04:54:03;;;;;;;0.10;0.10;;;4.10;99.90;;;;;;6198825;23;20020;-84
2022/01/26 04:56:30;;;;;;;0.10;0.10;;;4.10;99.90;;;;;;6235628;23;20074;-83
2022/01/26 04:58:57;;;;;;;0.10;0.10;;;4.20;99.90;;;;;;6224669;23;20047;-83
2022/01/26 05:01:25;;;;;;;0.10;0.10;;;4.10;99.90;;;;;;6223708;23;20533;-84
2022/01/26 05:03:53;;;;;;;0.10;0.10;;;;;;;;;;6225113;23;20073;-84
2022/01/26 05:06:19;;;;;;;0.05;0.05;;;4.10;99.90;;;;;;6200096;23;20024;-83
2022/01/26 05:08:46;;;;;;;0.00;0.00;;;4.10;99.90;;;;;;6224999;23;20051;-84
2022/01/26 05:11:20;;;;;;;0.10;0.10;;;4.10;99.90;;;;;;6198351;23;20020;-84
2022/01/26 05:13:56;;;;;;;0.10;0.10;;;4.10;99.90;;;;;;6226334;23;20024;-85
2022/01/26 05:16:23;;;;;;;0.10;0.10;;;4.10;99.90;;;;;;6223900;23;20019;-84
2022/01/26 05:18:52;;;;;;;0.10;0.10;;;4.10;99.90;;;;;;6250460;23;20054;-83
2022/01/26 05:21:19;;;;;;;0.10;0.10;;;4.10;99.90;;;;;;6223980;23;20024;-83
2022/01/26 05:23:47;;;;;;;0.10;0.10;;;4.10;99.90;;;;;;6223786;23;20382;-84
2022/01/26 05:26:14;;;;;;;0.05;0.05;;;4.10;99.90;;;;;;6224381;23;20477;-84
2022/01/26 05:28:41;;;;;;;0.00;0.00;;;;;;;;;;6225403;23;20343;-84
2022/01/26 05:31:08;;;;;;;0.10;0.10;;;;;;;;;;6224874;23;20028;-83
2022/01/26 05:33:35;;;;;;;0.10;0.10;;;4.10;99.90;;;;;;6224842;23;20023;-84
2022/01/26 05:36:06;;;;;;;0.10;0.10;;;4.10;99.90;;;;;;6200646;23;20226;-84
2022/01/26 05:38:33;;;;;;;0.10;0.10;;;;;;;;;;6224781;23;20016;-85
2022/01/26 05:41:02;;;;;;;0.03;0.03;;;;;;;;;;6224100;23;20079;-84
2022/01/26 05:43:29;;;;;;;0.00;0.00;;;;;;;;;;6251610;23;20024;-83
2022/01/26 05:46:01;;;;;;;0.10;0.10;;;4.10;99.90;;;;;;6224887;23;20016;-83
2022/01/26 05:48:27;;;;;;;0.00;0.00;;;4.10;99.90;;;;;;6226126;23;20066;-84
2022/01/26 05:51:04;;;;;;;0.08;0.08;;;4.00;99.90;;;;;;6253438;23;20020;-84
2022/01/26 05:53:32;;;;;;;0.10;0.10;;;4.10;99.90;;;;;;6226258;23;20397;-83
2022/01/26 05:56:00;;;;;;;0.10;0.10;;;3.90;99.90;;;;;;6255599;23;20020;-83
2022/01/26 05:58:27;;;;;;;0.10;0.10;;;;;;;;;;6201529;23;20020;-84
2022/01/26 06:00:54;;;;;;;0.10;0.10;;;;;;;;;;6227696;23;20020;-83
2022/01/26 06:03:22;;;;;;;0.05;0.05;;;;;;;;;;6227583;23;20035;-84
2022/01/26 06:05:48;;;;;;;0.00;0.00;;;4.10;99.90;;;;;;6252859;23;20016;-84
2022/01/26 06:08:16;;;;;;;0.00;0.00;;;;;;;;;;6253989;23;20070;-84
2022/01/26 06:10:44;;;;;;;0.00;0.00;;;4.00;99.90;;;;;;6254205;23;20016;-84
2022/01/26 06:13:11;;;;;;;0.10;0.10;;;;;;;;;;6238491;23;20066;-84
2022/01/26 06:15:38;;;;;;;0.10;0.10;;;;;;;;;;6202707;23;20012;-83
2022/01/26 06:18:05;;;;;;;0.10;0.10;;;4.00;99.90;;;;;;6227665;23;20079;-84
2022/01/26 06:20:33;;;;;;;0.10;0.10;;;4.00;99.90;;;;;;6253928;23;20022;-84
2022/01/26 06:23:02;;;;;;;0.10;0.10;;;4.10;99.90;;;;;;6227478;23;20016;-83
2022/01/26 06:25:30;;;;;;;0.10;0.10;;;4.00;99.90;;;;;;6253485;23;20020;-83
2022/01/26 06:28:00;;;;;;;0.10;0.10;;;4.00;99.90;;;;;;6262959;23;20020;-84
2022/01/26 06:30:27;;;;;;;;;;;4.00;99.90;;;;;;6237129;23;20016;-84
2022/01/26 06:32:55;;;;;;;0.10;0.10;;;5.90;99.90;;;;;;6251408;23;19939;-83
2022/01/26 06:35:23;;;;;;;0.10;0.10;;;3.90;99.90;;;;;;6196583;23;20024;-85
2022/01/26 06:37:50;;;;;;;0.10;0.10;;;3.80;99.90;;;;;;6249831;23;20020;-82
2022/01/26 06:40:17;;;;;;;0.10;0.10;;;3.80;99.90;;;;;;6249709;23;20562;-83
2022/01/26 06:42:58;;;;;;;0.10;0.10;;;;;;;;;;6223231;23;20036;-83
2022/01/26 06:45:30;;;;;;;0.10;0.10;;;3.80;99.90;;;;;;6222960;23;20090;-83
2022/01/26 06:50:54;;;;;;;0.10;0.10;;;3.80;99.90;;;;;;6183488;23;20085;-83
2022/01/26 06:53:21;;;;;;;0.10;0.10;;;3.80;99.90;;;;;;6222946;23;20019;-84
2022/01/26 06:55:48;;;;;;;0.10;0.10;;;3.80;99.90;;;;;;6224167;23;20095;-83
2022/01/26 06:58:15;;;;;;;0.10;0.10;;;;;;;;;;6198165;23;20070;-83
2022/01/26 07:00:43;;;;;;;0.00;0.00;;;3.70;99.90;;;;;;6222706;23;20077;-83
2022/01/26 07:03:11;;;;;;;0.00;0.00;;;;;;;;;;6223366;23;20016;-84
2022/01/26 07:05:38;;;;;;;0.20;0.20;;;;;;;;;;6217079;23;20031;-83
2022/01/26 07:08:05;;;;;;;0.10;0.10;;;3.80;99.90;;;;;;6194382;23;20062;-83
2022/01/26 07:10:36;;;;;;;0.10;0.10;;;;;;;;;;6195761;23;20099;-84
2022/01/26 07:13:04;;;;;;;0.10;0.10;;;;;;;;;;6222154;23;20035;-83
2022/01/26 07:21:23;;;;;;;0.00;0.00;;;3.80;99.90;;;;;;6222234;23;20451;-83
2022/01/26 07:23:50;;;;;;;0.10;0.10;;;3.80;99.90;;;;;;6231405;23;20455;-83
2022/01/26 07:26:17;;;;;;;0.00;0.00;;;;;;;;;;6217727;23;20022;-83
2022/01/26 07:28:44;;;;;;;0.10;0.10;;;;;;;;;;6220011;23;20375;-84
2022/01/26 07:31:12;;;;;;;0.10;0.10;;;3.80;99.90;;;;;;6230455;23;20533;-83
2022/01/26 07:33:42;;;;;;;0.10;0.10;;;3.80;99.90;;;;;;6219977;23;20036;-83
2022/01/26 07:36:09;;;;;;;0.10;0.10;;;;;;;;;;6246847;23;20020;-83
2022/01/26 07:38:36;;;;;;;0.10;0.10;;;3.80;99.90;;;;;;6194564;23;20035;-83
2022/01/26 07:41:03;;;;;;;0.10;0.10;;;;;;;;;;6220969;23;20024;-83
2022/01/26 07:43:31;;;;;;;0.10;0.10;;;;;;;;;;6249731;23;20028;-83
2022/01/26 07:45:58;;;;;;;0.10;0.10;;;;;;;;;;6221660;23;20042;-83
2022/01/26 07:48:25;;;;;;;0.00;0.00;;;3.70;99.90;;;;;;6220938;23;20078;-83
2022/01/26 07:50:55;;;;;;;0.00;0.00;;;3.70;99.90;;;;;;6197438;23;20016;-83
2022/01/26 07:53:22;;;;;;;0.10;0.10;;;;;;;;;;6226072;23;20012;-84
2022/01/26 07:55:50;;;;;;;0.10;0.10;;;3.80;99.90;;;;;;6236609;23;20333;-83
2022/01/26 07:58:18;;;;;;;0.10;0.10;;;3.80;99.90;;;;;;6223332;23;20016;-83
2022/01/26 08:00:46;;;;;;;0.08;0.08;;;;;;;;;;6222972;23;20051;-83
2022/01/26 08:03:13;;;;;;;0.10;0.10;;;;;;;;;;6223072;23;20016;-83
2022/01/26 08:05:41;;;;;;;0.00;0.00;;;;;;;;;;6222948;23;20495;-83
2022/01/26 08:08:09;;;;;;;0.10;0.10;;;3.60;99.90;;;;;;6249187;23;20016;-84
2022/01/26 08:10:36;;;;;;;0.10;0.10;;;3.70;99.90;;;;;;6222995;23;20080;-83
2022/01/26 08:13:03;;;;;;;0.10;0.10;;;3.60;99.90;;;;;;6222618;23;20058;-84
2022/01/26 08:15:30;;;;;;;0.10;0.10;;;3.60;99.90;;;;;;6197287;23;20474;-83
2022/01/26 08:17:58;;;;;;;0.10;0.10;;;;;;;;;;6222385;23;20342;-83
2022/01/26 08:20:25;;;;;;;0.10;0.10;;;;;;;;;;6198239;23;20462;-83
2022/01/26 08:22:55;;;;;;;0.00;0.00;;;;;;;;;;6223272;23;20019;-83
2022/01/26 08:25:23;;;;;;;0.10;0.10;;;3.50;99.90;;;;;;6223773;23;20020;-83
2022/01/26 08:28:00;;;;;;;0.00;0.00;;;;;;;;;;6224706;23;20027;-83
2022/01/26 08:30:28;;;;;;;0.00;0.00;;;;;;;;;;6223075;23;20028;-83
2022/01/26 08:32:56;;;;;;;0.10;0.10;;;;;;;;;;6223965;23;20020;-83
2022/01/26 08:35:23;;;;;;;0.10;0.10;;;;;;;;;;6223103;23;20070;-83
2022/01/26 08:37:50;;;;;;;0.05;0.05;;;;;;;;;;6224136;23;20174;-83
2022/01/26 08:40:17;;;;;;;0.10;0.10;;;3.50;99.90;;;;;;6223164;23;20012;-83
2022/01/26 08:42:45;;;;;;;0.00;0.00;;;3.50;99.90;;;;;;6249894;23;20016;-83
2022/01/26 08:45:13;;;;;;;0.10;0.10;;;3.50;99.90;;;;;;6223294;23;20020;-83
2022/01/26 09:00:57;;;;;;;0.03;0.03;;;3.30;99.90;;;;;;6216873;23;20086;-87
2022/01/26 09:03:24;;;;;;;0.00;0.00;;;;;;;;;;6189571;23;20095;-85
2022/01/26 09:05:52;;;;;;;0.05;0.05;;;;;;;;;;6215752;23;20020;-86
2022/01/26 09:08:19;;;;;;;0.08;0.08;;;3.40;99.90;;;;;;6211303;23;20020;-85
2022/01/26 09:10:46;;;;;;;0.10;0.10;;;;;;;;;;6189393;23;20390;-86
2022/01/26 09:13:13;;;;;;;0.10;0.10;;;3.40;99.90;;;;;;6189571;23;20427;-86
2022/01/26 09:15:41;;;;;;;0.10;0.10;;;;;;;;;;6189350;23;20017;-84
2022/01/26 09:18:14;;;;;;;0.10;0.10;;;3.40;99.90;;;;;;6189522;23;20024;-85
2022/01/26 09:20:41;;;;;;;0.10;0.10;;;;;;;;;;6189513;23;20032;-86
2022/01/26 09:23:08;;;;;;;0.00;0.00;;;3.40;99.90;;;;;;6188057;23;20023;-85
2022/01/26 09:25:35;;;;;;;0.00;0.00;;;;;;;;;;6213885;23;20529;-85
2022/01/26 09:28:02;;;;;;;0.00;0.00;;;3.40;99.90;;;;;;6188814;23;20020;-84
2022/01/26 09:30:30;;;;;;;0.00;0.00;;;;;;;;;;6239403;23;20366;-86
2022/01/26 09:32:57;;;;;;;0.00;0.00;;;;;;;;;;6189463;23;20013;-84
2022/01/26 09:35:25;;;;;;;0.10;0.10;;;3.40;99.90;;;;;;6189517;23;20036;-85
2022/01/26 09:37:52;;;;;;;0.10;0.10;;;3.50;99.90;;;;;;6189450;23;20017;-84
2022/01/26 09:40:19;;;;;;;0.10;0.10;;;3.40;99.90;;;;;;6239465;23;20071;-84
2022/01/26 09:42:46;;;;;;;0.00;0.00;;;3.40;99.90;;;;;;6189384;23;20020;-85
2022/01/26 09:45:14;;;;;;;0.10;0.10;;;;;;;;;;6214050;23;20020;-84
2022/01/26 09:47:41;;;;;;;0.00;0.00;;;;;;;;;;6188946;23;20020;-83
2022/01/26 09:50:30;;;;;;;0.10;0.10;;;3.50;99.90;;;;;;6214826;23;20021;-84
2022/01/26 09:52:57;;;;;;;0.10;0.10;;;;;;;;;;6163802;23;20021;-85
2022/01/26 09:55:24;;;;;;;0.03;0.03;;;;;;;;;;6216024;23;20016;-84
2022/01/26 09:57:58;;;;;;;0.00;0.00;;;;;;;;;;6200284;23;20024;-84
2022/01/26 10:00:26;;;;;;;0.10;0.10;;;;;;;;;;6187503;23;20483;-84
2022/01/26 10:02:56;;;;;;;0.00;0.00;;;3.60;99.90;;;;;;6187609;23;20021;-83
2022/01/26 10:05:24;;;;;;;0.10;0.10;;;3.50;99.90;;;;;;6186585;23;20269;-86
2022/01/26 10:08:10;;;;;;;0.10;0.10;;;3.60;99.90;;;;;;6185305;23;20017;-85
2022/01/26 10:16:04;;;;;;;0.10;0.10;;;3.70;99.90;;;;;;6168080;23;20021;-84
2022/01/26 10:18:32;;;;;;;0.10;0.10;;;3.70;99.90;;;;;;6183800;23;20035;-85
2022/01/26 10:21:01;;;;;;;0.10;0.10;;;3.60;99.90;;;;;;6183859;23;20076;-85
2022/01/26 10:23:36;;;;;;;0.00;0.00;;;3.70;99.90;;;;;;6185521;23;20017;-85
2022/01/26 10:26:06;;;;;;;0.10;0.10;;;3.70;99.90;;;;;;6208805;23;20456;-87
2022/01/26 10:28:43;;;;;;;;;;;3.70;99.90;;;;;;6184181;23;20392;-85
2022/01/26 10:31:18;;;;;;;0.10;0.10;;;3.80;99.90;;;;;;6234035;23;19916;-84
2022/01/26 10:34:08;;;;;;;0.00;0.00;;;3.70;99.90;;;;;;6189145;23;20095;-84
2022/01/26 10:36:37;;;;;;;0.00;0.00;;;3.60;99.90;;;;;;6216817;23;20021;-84
2022/01/26 10:39:10;;;;;;;0.00;0.00;;;3.70;99.90;;;;;;6194078;23;20099;-86
2022/01/26 10:41:38;;;;;;;0.00;0.00;;;;;;;;;;6194598;23;20530;-86
2022/01/26 10:44:06;;;;;;;0.10;0.10;;;3.60;99.90;;;;;;6192529;23;20017;-87
2022/01/26 10:46:37;;;;;;;0.10;0.10;;;3.60;99.90;;;;;;6191554;23;20044;-85
2022/01/26 10:49:14;;;;;;;0.10;0.10;;;3.60;99.90;;;;;;6191859;23;20025;-84
2022/01/26 10:54:25;;;;;;;0.10;0.10;;;3.70;99.90;;;;;;6191721;23;20075;-83
2022/01/26 10:56:52;;;;;;;0.00;0.00;;;3.70;99.90;;;;;;6190190;23;20021;-85
2022/01/26 10:59:19;;;;;;;0.03;0.03;;;3.70;99.90;;;;;;6200108;23;20623;-85
2022/01/26 11:01:46;;;;;;;0.10;0.10;;;3.70;99.90;;;;;;6220893;23;20387;-84
2022/01/26 11:04:13;;;;;;;0.00;0.00;;;;;;;;;;6246503;23;20415;-84
2022/01/26 11:06:48;;;;;;;0.00;0.00;;;3.70;99.90;;;;;;6196374;23;20526;-85
2022/01/26 11:09:18;;;;;;;0.10;0.10;;;3.60;99.90;;;;;;6220792;23;20071;-84
2022/01/26 11:11:44;;;;;;;0.00;0.00;;;3.60;99.90;;;;;;6243032;23;20091;-84
2022/01/26 11:14:13;;;;;;;0.10;0.10;;;3.70;99.90;;;;;;6243305;23;20265;-85
2022/01/26 11:16:53;;;;;;;0.10;0.10;;;3.70;99.90;;;;;;6216373;23;20020;-85
2022/01/26 11:19:23;;;;;;;0.10;0.10;;;;;;;;;;6245906;23;20013;-84
2022/01/26 11:21:50;;;;;;;0.10;0.10;;;3.70;99.90;;;;;;6195859;23;20016;-84
2022/01/26 11:24:46;;;;;;;0.00;0.00;;;3.70;99.90;;;;;;6241633;23;20027;-83
2022/01/26 11:27:14;;;;;;;0.00;0.00;;;3.70;99.90;;;;;;6245571;23;20343;-86
2022/01/26 11:29:46;;;;;;;0.00;0.00;;;3.70;99.90;;;;;;6170545;23;20025;-85
2022/01/26 11:32:20;;;;;;;0.10;0.10;;;3.70;99.90;;;;;;6245465;23;20067;-84
2022/01/26 11:34:50;;;;;;;0.10;0.10;;;3.30;99.90;;;;;;6195149;23;20013;-83
2022/01/26 11:37:24;;;;;;;;;;;3.70;99.90;;;;;;6220484;23;20407;-86
2022/01/26 11:45:23;;;;;;;0.10;0.10;;;3.70;99.90;;;;;;6194611;23;20013;-85
2022/01/26 11:47:59;;;;;;;0.10;0.10;;;3.70;99.90;;;;;;6244920;23;20026;-84
2022/01/26 11:50:26;;;;;;;0.10;0.10;;;3.60;99.90;;;;;;6219159;23;20039;-83
2022/01/26 11:53:03;;;;;;;0.00;0.00;;;3.60;99.90;;;;;;6244791;23;20013;-85
2022/01/26 11:55:40;;;;;;;0.10;0.10;;;3.70;99.90;;;;;;6244483;23;20484;-85
2022/01/26 11:58:10;;;;;;;0.10;0.10;;;3.70;99.90;;;;;;6219999;23;20075;-85
2022/01/26 12:00:44;;;;;;;0.00;0.00;;;3.70;99.90;;;;;;6220199;23;20024;-85
2022/01/26 12:03:28;;;;;;;0.00;0.00;;;3.70;99.90;;;;;;6245287;23;20030;-84
2022/01/26 12:05:57;;;;;;;0.10;0.10;;;3.70;99.90;;;;;;6220184;23;20043;-85
2022/01/26 12:08:31;;;;;;;0.10;0.10;;;3.70;99.90;;;;;;6194374;23;20025;-85
2022/01/26 12:10:59;;;;;;;0.10;0.10;;;3.70;99.90;;;;;;6222172;23;20028;-86
2022/01/26 12:13:28;;;;;;;0.10;0.10;;;3.70;99.90;;;;;;6243798;23;20027;-86
2022/01/26 12:16:04;;;;;;;0.10;0.10;;;;;;;;;;6244816;23;20471;-83
2022/01/26 12:32:26;;;;;;;0.10;0.10;;;3.80;99.90;;;;;;6221334;23;20027;-85
2022/01/26 12:37:36;;;;;;;0.10;0.10;;;;;;;;;;6217867;23;20028;-85
2022/01/26 12:43:05;;;;;;;0.10;0.10;;;3.80;99.90;;;;;;6191539;23;20020;-86
2022/01/26 12:45:54;;;;;;;0.10;0.10;;;3.80;99.90;;;;;;6241103;23;20020;-84
2022/01/26 12:48:21;;;;;;;0.00;0.00;;;3.80;99.90;;;;;;6243090;23;20039;-85
2022/01/26 12:50:49;;;;;;;0.10;0.10;;;3.90;99.90;;;;;;6219540;23;20074;-84
2022/01/26 12:53:22;;;;;;;0.10;0.10;;;3.90;99.90;;;;;;6245200;23;20105;-84
2022/01/26 12:55:55;;;;;;;0.00;0.00;;;3.90;99.90;;;;;;6200449;23;20036;-85
2022/01/26 12:58:29;;;;;;;0.10;0.10;;;3.90;99.90;;;;;;6215595;23;20086;-84
2022/01/26 13:01:01;;;;;;;0.10;0.10;;;3.90;99.90;;;;;;6220043;23;20062;-86
2022/01/26 13:03:30;;;;;;;0.00;0.00;;;4.00;99.90;;;;;;6244397;23;20474;-85
2022/01/26 13:06:09;;;;;;;0.10;0.10;;;3.90;99.90;;;;;;6239908;23;20317;-84
2022/01/26 13:08:52;;;;;;;0.00;0.00;;;3.90;99.90;;;;;;6244309;23;20067;-85
2022/01/26 13:11:26;;;;;;;0.10;0.10;;;4.00;99.90;;;;;;6228757;23;20075;-84
2022/01/26 13:14:22;;;;;;;0.10;0.10;;;4.00;99.90;;;;;;6240249;23;20017;-86
2022/01/26 13:19:59;;;;;;;0.10;0.10;;;4.00;99.90;;;;;;6188471;23;20051;-84
2022/01/26 13:25:03;;;;;;;0.00;0.00;;;4.00;99.90;;;;;;6225285;23;20023;-84
2022/01/26 13:27:55;;;;;;;0.00;0.00;;;;;;;;;;6213293;23;20530;-84
2022/01/26 13:36:22;;;;;;;0.00;0.00;;;4.00;99.90;;;;;;6194519;23;20094;-85
2022/01/26 13:39:01;;;;;;;0.00;0.00;;;4.00;99.90;;;;;;6162938;23;20518;-84
2022/01/26 13:47:09;;;;;;;0.00;0.00;;;3.90;99.90;;;;;;6237728;23;20021;-85
2022/01/26 13:59:50;;;;;;;0.00;0.00;;;4.00;99.90;;;;;;6214400;23;20042;-85
2022/01/26 14:02:18;;;;;;;0.10;0.10;;;4.00;99.90;;;;;;6240222;23;20025;-85
2022/01/26 14:04:46;;;;;;;0.08;0.08;;;4.00;99.90;;;;;;6240496;23;20387;-84
2022/01/26 14:07:13;;;;;;;0.00;0.00;;;;;;;;;;6239078;23;20028;-84
2022/01/26 14:09:41;;;;;;;0.10;0.10;;;;;;;;;;6165734;23;20078;-83
2022/01/26 14:12:12;;;;;;;0.00;0.00;;;4.10;99.90;;;;;;6165272;23;20020;-84
2022/01/26 14:14:48;;;;;;;0.10;0.10;;;4.10;99.90;;;;;;6216177;23;20012;-84
2022/01/26 14:17:27;;;;;;;0.10;0.10;;;4.20;99.90;;;;;;6240300;23;20120;-84
2022/01/26 14:22:37;;;;;;;0.10;0.10;;;;;;;;;;6217475;23;20027;-85
2022/01/26 14:27:43;;;;;;;0.00;0.00;;;;;;;;;;6216354;23;20020;-84
2022/01/26 15:22:53;;;;;;;0.10;0.10;;;4.10;99.90;;;;;;6204331;23;20044;-84
2022/01/26 15:33:22;;;;;;;0.10;0.10;;;4.10;99.90;;;;;;6221914;23;20021;-84
2022/01/26 15:41:39;;;;;;;0.05;0.05;;;4.10;99.90;;;;;;6195989;23;20028;-83
2022/01/26 16:28:04;;;;;;;0.10;0.10;;;4.10;99.90;;;;;;6192604;23;20071;-83
2022/01/26 16:36:18;;;;;;;0.00;0.00;;;4.10;99.90;;;;;;6221351;23;20016;-84
2022/01/26 16:38:54;;;;;;;0.10;0.10;;;4.10;99.90;;;;;;6220398;23;20398;-84
2022/01/26 17:21:05;;;;;;;0.10;0.10;;;;;;;;;;6220514;23;20074;-84
2022/01/26 17:24:19;;;;;;;0.10;0.10;;;4.10;99.90;;;;;;6162733;23;20029;-84
2022/01/26 17:24:20;;;;;;;0.00;0.00;;;;;;;;;;6220826;23;20027;-84
2022/01/26 18:04:05;;;;;;;0.10;0.10;;;4.30;99.90;;;;;;6219886;23;20083;-83
2022/01/26 18:16:49;;;;;;;0.10;0.10;;;4.30;99.90;;;;;;6245965;23;20048;-83
2022/01/26 18:25:54;;;;;;;0.08;0.08;;;4.20;99.90;;;;;;6221978;23;19942;-84
2022/01/26 18:38:46;;;;;;;0.10;0.10;;;4.20;99.90;;;;;;6194429;23;20024;-82
2022/01/26 18:50:08;;;;;;;0.00;0.00;;;4.20;99.90;;;;;;6194201;23;20059;-82
2022/01/26 18:52:38;;;;;;;0.10;0.10;;;4.20;99.90;;;;;;6246233;23;20074;-83
2022/01/26 18:55:11;;;;;;;0.10;0.10;;;4.20;99.90;;;;;;6244868;23;20092;-83
2022/01/26 18:57:40;;;;;;;0.10;0.10;;;4.20;99.90;;;;;;6222612;23;20025;-83
2022/01/26 19:00:08;;;;;;;0.00;0.00;;;4.30;99.90;;;;;;6221678;23;20463;-83
2022/01/26 19:02:35;;;;;;;0.10;0.10;;;;;;;;;;6223100;23;20051;-83
2022/01/26 19:05:12;;;;;;;0.00;0.00;;;4.30;99.90;;;;;;6233854;23;20016;-83
2022/01/26 19:07:40;;;;;;;0.10;0.10;;;4.30;99.90;;;;;;6247285;23;20016;-84
2022/01/26 19:10:08;;;;;;;0.05;0.05;;;4.30;99.90;;;;;;6199626;23;20026;-82
2022/01/26 19:12:37;;;;;;;0.10;0.10;;;4.30;99.90;;;;;;6247717;23;20035;-83
2022/01/26 19:15:11;;;;;;;0.10;0.10;;;4.40;99.90;;;;;;6247370;23;20024;-83
2022/01/26 19:17:57;;;;;;;0.10;0.10;;;;;;;;;;6223190;23;20017;-83
2022/01/26 19:20:53;;;;;;;0.10;0.10;;;;;;;;;;6174016;23;20020;-83
2022/01/26 19:26:15;;;;;;;0.00;0.00;;;4.40;99.90;;;;;;6197659;23;20017;-83
2022/01/26 19:28:46;;;;;;;0.10;0.10;;;4.40;99.90;;;;;;6249278;23;20032;-83
2022/01/26 19:32:00;;;;;;;0.00;0.00;;;4.30;99.90;;;;;;6223915;23;20024;-83
2022/01/26 19:43:32;;;;;;;0.00;0.00;;;4.40;99.90;;;;;;6223921;23;20023;-84
2022/01/26 19:53:34;;;;;;;0.00;0.00;;;4.30;99.90;;;;;;6165324;23;20025;-82
2022/01/26 19:56:00;;;;;;;0.00;0.00;;;4.30;99.90;;;;;;6190748;23;20059;-82
2022/01/26 19:58:27;;;;;;;0.10;0.10;;;4.40;99.90;;;;;;6221838;23;20356;-83
2022/01/26 20:00:55;;;;;;;0.10;0.10;;;;;;;;;;6245066;23;20025;-84
2022/01/26 20:03:23;;;;;;;0.10;0.10;;;4.40;99.90;;;;;;6194900;23;20016;-83
2022/01/26 20:05:52;;;;;;;0.10;0.10;;;;;;;;;;6245973;23;20507;-82
2022/01/26 20:08:33;;;;;;;0.10;0.10;;;4.40;99.90;;;;;;6196344;23;20017;-84
2022/01/26 20:11:06;;;;;;;0.10;0.10;;;;;;;;;;6244744;23;20391;-83
2022/01/26 20:13:39;;;;;;;0.00;0.00;;;4.40;99.90;;;;;;6172217;23;20035;-83
2022/01/26 20:16:07;;;;;;;0.10;0.10;;;4.40;99.90;;;;;;6245654;23;20017;-83
2022/01/26 20:18:37;;;;;;;0.10;0.10;;;4.40;99.90;;;;;;6219181;23;20047;-83
2022/01/26 20:21:04;;;;;;;0.10;0.10;;;;;;;;;;6246212;23;20448;-82
2022/01/26 20:23:35;;;;;;;0.10;0.10;;;4.40;99.90;;;;;;6192975;23;20585;-83
2022/01/26 20:26:04;;;;;;;0.05;0.05;;;4.40;99.90;;;;;;6246097;23;20082;-83
2022/01/26 20:28:34;;;;;;;0.10;0.10;;;4.40;99.90;;;;;;6222405;23;20446;-83
2022/01/26 20:31:02;;;;;;;0.10;0.10;;;4.40;99.90;;;;;;6246497;23;20020;-83
2022/01/26 20:33:29;;;;;;;0.10;0.10;;;4.50;99.90;;;;;;6247937;23;20020;-84
2022/01/26 20:35:58;;;;;;;0.00;0.00;;;4.50;99.90;;;;;;6247748;23;20029;-83